Time;durP1;ratioP1;P1;durP2;ratioP2;P2;SDS_P1;SDS_P2;PMS_P1;PMS_P2;Temp;Humidity;BMP_temperature;BMP_pressure;BME280_temperature;BME280_humidity;BME280_pressure;Samples;Min_cycle;Max_cycle;Signal;HPM_P1;HPM_P2
2023/05/26 00:01:34;;;;;;;6.03;4.13;;;12.20;73.60;;;12.05;64.97;98642.84;5017214;28;20472;-71
2023/05/26 00:04:03;;;;;;;5.47;3.63;;;12.20;73.80;;;11.90;64.80;98621.38;5012486;28;20899;-70
2023/05/26 00:06:31;;;;;;;5.53;3.90;;;12.10;74.00;;;12.05;64.82;98640.13;5007633;28;20470;-70
2023/05/26 00:08:59;;;;;;;5.70;4.00;;;12.10;74.30;;;12.17;64.44;98638.47;5020894;28;20539;-72
2023/05/26 00:11:28;;;;;;;7.60;4.50;;;12.20;74.40;;;12.07;64.72;98642.66;5001571;28;20464;-70
2023/05/26 00:13:56;;;;;;;5.97;3.97;;;12.20;74.40;;;12.02;64.97;98641.41;5021619;28;20468;-70
2023/05/26 00:16:25;;;;;;;9.80;4.50;;;12.10;74.80;;;11.89;65.27;98642.19;4989191;28;20455;-70
2023/05/26 00:18:52;;;;;;;5.33;3.87;;;12.10;74.90;;;11.83;65.65;98643.03;4998728;28;20828;-70
2023/05/26 00:21:19;;;;;;;5.53;3.40;;;12.00;75.20;;;11.77;65.71;98646.59;4989590;28;20460;-70
2023/05/26 00:23:46;;;;;;;6.90;4.17;;;11.90;75.50;;;11.82;66.11;98644.09;5011332;28;20490;-70
2023/05/26 00:26:14;;;;;;;6.63;4.00;;;12.00;75.50;;;11.83;65.74;98647.63;4998404;28;20455;-70
2023/05/26 00:28:41;;;;;;;7.20;4.30;;;11.90;76.10;;;11.71;66.45;98639.28;5009443;28;20464;-69
2023/05/26 00:31:08;;;;;;;5.00;4.50;;;11.90;76.10;;;11.61;65.53;98613.50;5001597;28;20455;-71
2023/05/26 00:33:37;;;;;;;10.07;4.23;;;11.90;76.20;;;11.63;67.00;98637.63;5027880;28;20479;-70
2023/05/26 00:36:05;;;;;;;10.80;4.80;;;11.80;76.20;;;11.70;66.38;98637.63;4998787;28;20484;-70
2023/05/26 00:38:32;;;;;;;6.07;4.57;;;11.80;76.60;;;11.71;66.20;98640.13;5007794;28;20493;-69
2023/05/26 00:40:59;;;;;;;9.53;3.93;;;11.80;76.80;;;11.68;66.88;98650.53;5000706;28;20470;-70
2023/05/26 00:43:27;;;;;;;6.57;3.80;;;11.70;77.00;;;11.68;66.76;98654.09;5002801;28;20485;-70
2023/05/26 00:45:54;;;;;;;11.63;4.60;;;11.70;77.30;;;11.55;67.33;98651.38;5001911;28;21031;-70
2023/05/26 00:48:22;;;;;;;7.37;5.33;;;11.70;77.40;;;11.61;67.08;98654.09;5023517;28;20951;-71
2023/05/26 00:50:51;;;;;;;6.10;4.30;;;11.70;77.60;;;11.46;67.95;98659.66;5012706;28;21160;-69
2023/05/26 00:53:20;;;;;;;7.90;4.57;;;11.60;77.80;;;11.29;68.01;98642.16;4994907;28;20466;-70
2023/05/26 00:55:51;;;;;;;7.00;4.67;;;11.60;78.00;;;11.43;67.44;98645.72;5009514;28;20560;-71
2023/05/26 00:58:18;;;;;;;5.60;4.03;;;11.60;78.20;;;11.56;67.11;98648.44;4998498;28;20832;-70
2023/05/26 01:00:46;;;;;;;6.90;4.30;;;11.60;78.20;;;11.32;68.37;98647.16;5015106;28;20467;-69
2023/05/26 01:03:14;;;;;;;6.03;4.87;;;11.50;78.30;;;11.38;68.54;98651.75;4996205;28;20899;-70
2023/05/26 01:05:42;;;;;;;5.50;4.30;;;11.50;78.80;;;11.29;68.40;98644.88;4998204;28;21054;-71
2023/05/26 01:08:10;;;;;;;5.27;4.30;;;11.40;78.80;;;11.21;68.44;98645.88;5009517;28;20471;-69
2023/05/26 01:10:37;;;;;;;6.80;5.20;;;11.40;79.10;;;11.19;68.91;98637.97;4996321;28;20565;-69
2023/05/26 01:13:10;;;;;;;6.83;4.73;;;11.30;79.40;;;10.76;69.58;98585.03;5012016;28;20469;-70
2023/05/26 01:15:43;;;;;;;9.43;4.73;;;11.30;79.80;;;11.13;69.87;98646.06;5013050;28;20514;-69
2023/05/26 01:18:13;;;;;;;5.60;4.10;;;11.20;80.10;;;11.10;69.30;98643.78;4998891;28;20616;-70
2023/05/26 01:20:48;;;;;;;6.07;4.40;;;11.20;80.50;;;11.02;69.94;98648.34;4997291;28;20503;-69
2023/05/26 01:23:33;;;;;;;8.00;4.83;;;11.10;80.70;;;11.01;69.79;98652.06;5017254;28;20460;-70
2023/05/26 01:26:22;;;;;;;5.70;4.40;;;11.10;80.90;;;10.93;70.19;98625.22;5018717;28;20582;-70
2023/05/26 01:28:53;;;;;;;8.93;5.30;;;11.10;81.20;;;11.16;68.97;98632.16;5009007;28;20565;-71
2023/05/26 01:31:21;;;;;;;4.83;4.30;;;11.30;80.70;;;11.04;69.55;98638.16;5008176;28;20482;-71
2023/05/26 01:33:48;;;;;;;5.90;4.43;;;11.20;80.50;;;11.11;69.86;98640.03;4997738;28;20456;-70
2023/05/26 01:36:15;;;;;;;7.80;4.40;;;11.20;81.00;;;11.13;69.62;98637.94;4987693;28;20556;-71
2023/05/26 01:38:43;;;;;;;6.17;3.97;;;11.20;81.10;;;11.03;70.00;98639.19;4993051;28;20458;-71
2023/05/26 01:41:19;;;;;;;11.80;5.13;;;11.10;80.70;;;10.98;69.52;98630.00;4998858;28;20547;-70
2023/05/26 01:43:59;;;;;;;8.83;4.77;;;11.10;81.00;;;10.98;70.32;98636.25;5015182;28;20527;-70
2023/05/26 01:46:31;;;;;;;9.47;4.70;;;11.10;81.50;;;10.72;70.24;98620.75;4999293;28;21604;-71
2023/05/26 01:49:03;;;;;;;6.17;5.10;;;11.00;81.40;;;10.71;71.27;98632.59;5012228;28;20479;-69
2023/05/26 01:51:35;;;;;;;12.20;5.57;;;10.90;82.10;;;10.39;71.77;98578.19;5017878;28;20469;-69
2023/05/26 01:54:08;;;;;;;6.00;4.80;;;10.90;82.50;;;10.70;71.54;98633.66;4999904;28;20821;-70
2023/05/26 01:56:37;;;;;;;7.50;5.10;;;10.80;82.80;;;10.34;70.94;98562.59;5017452;28;20570;-70
2023/05/26 01:59:07;;;;;;;5.57;4.10;;;10.90;82.60;;;10.73;71.19;98623.28;5012940;28;20467;-71
2023/05/26 02:01:35;;;;;;;6.13;4.93;;;10.80;82.70;;;10.66;71.53;98630.50;4999150;28;20533;-70
2023/05/26 02:04:02;;;;;;;6.53;4.80;;;10.80;83.40;;;10.57;71.75;98629.03;5000391;28;20838;-71
2023/05/26 02:06:30;;;;;;;10.77;5.17;;;10.70;83.40;;;10.51;72.00;98619.00;5013641;28;20477;-71
2023/05/26 02:08:58;;;;;;;13.20;5.37;;;10.70;83.90;;;10.44;72.09;98633.31;5007431;28;20470;-70
2023/05/26 02:11:25;;;;;;;5.43;4.93;;;10.60;84.10;;;10.50;72.54;98623.59;5015049;28;20463;-70
2023/05/26 02:13:53;;;;;;;7.17;4.70;;;10.60;84.50;;;10.43;72.51;98618.16;5017091;28;20456;-71
2023/05/26 02:16:23;;;;;;;7.43;4.57;;;10.50;84.60;;;10.44;72.41;98619.81;5013156;28;21182;-71
2023/05/26 02:18:50;;;;;;;7.90;5.33;;;10.50;85.00;;;10.42;72.16;98621.88;4996751;28;20501;-70
2023/05/26 02:21:18;;;;;;;7.53;5.23;;;10.50;85.10;;;10.40;72.91;98620.38;4998162;28;20478;-70
2023/05/26 02:23:45;;;;;;;8.20;4.93;;;10.50;85.10;;;10.38;72.95;98622.44;5007804;28;20607;-71
2023/05/26 02:26:12;;;;;;;16.20;5.33;;;10.40;85.70;;;10.01;72.61;98547.03;5003047;28;20454;-72
2023/05/26 02:28:39;;;;;;;8.70;4.57;;;10.50;85.60;;;10.49;72.85;98622.75;5020741;28;20458;-71
2023/05/26 02:31:07;;;;;;;7.47;5.80;;;10.60;84.90;;;10.34;72.51;98612.03;5016029;28;20460;-71
2023/05/26 02:33:41;;;;;;;7.27;5.10;;;10.50;85.10;;;10.24;73.05;98610.75;5015030;28;20866;-69
2023/05/26 02:36:08;;;;;;;5.70;4.60;;;10.40;86.00;;;10.13;73.80;98604.84;5019141;28;20466;-71
2023/05/26 02:38:35;;;;;;;8.37;4.97;;;10.30;86.70;;;10.12;74.21;98600.50;5020470;28;20458;-70
2023/05/26 02:41:02;;;;;;;6.33;4.93;;;10.20;87.30;;;10.09;74.22;98605.44;5014377;28;20454;-71
2023/05/26 02:43:30;;;;;;;7.47;5.03;;;10.20;87.50;;;10.05;74.22;98611.25;5014348;28;21532;-72
2023/05/26 02:45:57;;;;;;;12.27;5.20;;;10.20;87.80;;;10.24;73.52;98619.66;5001896;28;20493;-71
2023/05/26 02:48:24;;;;;;;4.87;4.37;;;10.30;87.40;;;10.29;74.15;98616.38;5021059;28;20537;-71
2023/05/26 02:50:55;;;;;;;6.63;5.27;;;10.40;86.70;;;10.24;73.96;98613.44;5023098;28;20508;-70
2023/05/26 02:53:22;;;;;;;8.03;5.20;;;10.30;87.00;;;10.19;73.38;98606.75;5001589;28;20655;-71
2023/05/26 02:55:50;;;;;;;7.20;5.20;;;10.30;86.80;;;10.21;73.74;98618.19;4999000;28;20817;-70
2023/05/26 02:58:17;;;;;;;9.73;5.67;;;10.30;86.80;;;10.19;73.78;98612.16;5015466;28;20975;-71
2023/05/26 03:00:45;;;;;;;8.30;5.23;;;10.20;87.80;;;10.13;73.76;98625.59;5013941;28;20508;-71
2023/05/26 03:03:13;;;;;;;10.43;5.33;;;10.30;87.00;;;10.12;74.36;98624.78;5010666;28;20458;-71
2023/05/26 03:05:41;;;;;;;8.27;4.53;;;10.20;87.90;;;10.04;74.63;98622.22;5008131;28;20482;-70
2023/05/26 03:08:09;;;;;;;10.20;5.70;;;10.20;88.10;;;9.90;75.59;98607.81;5013765;28;21133;-70
2023/05/26 03:10:39;;;;;;;8.13;5.27;;;10.10;88.50;;;9.84;75.85;98616.69;5000917;28;20454;-70
2023/05/26 03:13:06;;;;;;;7.30;5.50;;;9.90;90.20;;;9.73;75.67;98588.38;5014544;28;20503;-71
2023/05/26 03:15:36;;;;;;;9.90;5.03;;;9.90;90.50;;;9.86;75.66;98601.97;5000077;28;20459;-71
2023/05/26 03:18:04;;;;;;;12.03;6.20;;;9.90;90.60;;;10.00;75.09;98607.47;5012053;28;20525;-71
2023/05/26 03:20:31;;;;;;;8.23;5.07;;;10.00;90.20;;;9.90;75.53;98608.63;4997027;28;20503;-71
2023/05/26 03:22:58;;;;;;;6.23;4.27;;;10.00;89.70;;;9.83;76.06;98607.75;5019906;28;20459;-73
2023/05/26 03:25:26;;;;;;;8.63;4.63;;;9.90;90.60;;;9.70;76.64;98607.66;4999803;28;21079;-71
2023/05/26 03:27:54;;;;;;;6.43;4.47;;;9.80;90.80;;;9.77;76.52;98611.22;5003873;28;20466;-71
2023/05/26 03:30:21;;;;;;;6.90;5.27;;;9.80;91.40;;;9.72;76.41;98605.59;4997728;28;20534;-70
2023/05/26 03:32:48;;;;;;;8.40;5.70;;;9.80;91.00;;;9.72;76.47;98600.19;4993021;28;21000;-71
2023/05/26 03:35:16;;;;;;;9.93;5.50;;;9.80;90.90;;;9.68;76.57;98604.31;4995315;28;20490;-70
2023/05/26 03:37:43;;;;;;;8.70;4.70;;;9.90;90.90;;;9.69;76.27;98597.91;5013412;28;20455;-71
2023/05/26 03:40:10;;;;;;;6.63;5.37;;;9.90;91.10;;;9.83;76.00;98605.06;5016278;28;20495;-70
2023/05/26 03:42:39;;;;;;;6.80;5.07;;;9.90;90.90;;;9.99;75.87;98608.50;5013437;28;20471;-72
2023/05/26 03:45:08;;;;;;;10.80;5.73;;;10.00;90.30;;;9.92;75.62;98594.97;5020842;28;20837;-71
2023/05/26 03:47:35;;;;;;;5.53;4.60;;;10.00;90.10;;;10.08;75.84;98607.28;5015285;28;20513;-71
2023/05/26 03:50:03;;;;;;;10.43;6.00;;;10.10;90.10;;;10.17;75.00;98605.31;5005783;28;20461;-70
2023/05/26 03:52:31;;;;;;;7.13;5.80;;;10.20;89.70;;;10.23;74.89;98606.34;5016979;28;20499;-72
2023/05/26 03:54:58;;;;;;;11.30;6.13;;;10.30;89.30;;;10.26;74.80;98609.50;5002750;28;20921;-71
2023/05/26 03:57:25;;;;;;;11.77;5.47;;;10.40;87.80;;;10.18;74.50;98609.66;5016827;28;20466;-71
2023/05/26 03:59:54;;;;;;;7.63;5.27;;;10.40;87.50;;;10.32;74.21;98622.22;5026120;28;20535;-70
2023/05/26 04:02:21;;;;;;;6.40;5.13;;;10.40;87.20;;;10.17;73.96;98560.22;5022035;28;20467;-71
2023/05/26 04:04:48;;;;;;;8.17;5.40;;;10.60;86.90;;;10.66;72.70;98617.00;5022465;28;20478;-71
2023/05/26 04:07:16;;;;;;;7.90;5.23;;;10.70;85.90;;;10.93;72.42;98621.69;5014775;28;20468;-71
2023/05/26 04:09:43;;;;;;;7.60;5.70;;;11.00;85.10;;;11.34;71.26;98613.47;5019387;28;20545;-72
2023/05/26 04:12:11;;;;;;;6.97;5.17;;;11.40;83.90;;;12.26;67.39;98609.28;4999546;28;20455;-70
2023/05/26 04:14:38;;;;;;;14.13;6.57;;;12.20;81.30;;;13.00;64.50;98613.59;5022124;28;20469;-71
2023/05/26 04:17:07;;;;;;;7.63;5.73;;;13.00;78.70;;;13.36;62.49;98614.00;5018324;28;20466;-71
2023/05/26 04:19:34;;;;;;;6.20;5.50;;;13.50;77.00;;;13.96;60.93;98620.91;5000789;28;20471;-73
2023/05/26 04:22:01;;;;;;;5.97;5.37;;;14.10;75.30;;;14.03;60.07;98616.25;5023733;28;20462;-71
2023/05/26 04:24:28;;;;;;;8.83;5.83;;;14.80;73.30;;;14.50;59.21;98623.09;4996699;28;20929;-71
2023/05/26 04:26:56;;;;;;;7.60;4.70;;;15.00;71.90;;;14.98;57.75;98629.63;5024048;28;20530;-71
2023/05/26 04:29:23;;;;;;;9.63;5.40;;;15.50;70.50;;;14.69;57.70;98613.84;5005274;28;20491;-72
2023/05/26 04:31:50;;;;;;;7.30;5.40;;;15.50;69.00;;;15.50;55.89;98618.22;5013196;28;20468;-71
2023/05/26 04:34:21;;;;;;;8.70;5.10;;;16.10;68.60;;;15.47;55.25;98624.16;5027062;28;20460;-72
2023/05/26 04:36:48;;;;;;;5.87;4.90;;;16.20;66.30;;;15.03;56.44;98629.81;5008590;28;20465;-69
2023/05/26 04:39:16;;;;;;;7.27;5.53;;;16.10;65.70;;;15.46;55.20;98621.66;5023906;28;20492;-73
2023/05/26 04:41:46;;;;;;;5.67;4.50;;;16.10;65.90;;;15.40;55.14;98628.88;4999494;28;20518;-71
2023/05/26 04:44:13;;;;;;;7.93;5.47;;;16.20;65.30;;;15.19;55.85;98641.91;5022730;28;20470;-71
2023/05/26 04:46:41;;;;;;;4.90;4.40;;;16.10;65.10;;;15.66;55.08;98634.97;5020657;28;20480;-72
2023/05/26 04:49:09;;;;;;;6.50;5.77;;;16.30;65.00;;;15.52;55.07;98637.88;4989836;28;20464;-71
2023/05/26 04:51:38;;;;;;;7.53;4.70;;;16.50;64.60;;;16.13;53.65;98637.75;5005109;28;20472;-71
2023/05/26 04:54:05;;;;;;;6.50;5.10;;;16.70;64.00;;;16.00;53.86;98613.50;5002799;28;20455;-73
2023/05/26 04:56:32;;;;;;;4.90;4.40;;;17.20;62.90;;;16.20;52.79;98625.94;5011152;28;20489;-78
2023/05/26 04:59:00;;;;;;;4.53;4.13;;;17.00;62.10;;;17.05;50.94;98642.78;5021564;28;20536;-73
2023/05/26 05:01:27;;;;;;;7.43;5.03;;;17.50;61.80;;;17.17;50.43;98631.78;5021257;28;20556;-73
2023/05/26 05:03:54;;;;;;;8.20;5.80;;;17.80;60.80;;;17.37;49.81;98628.63;5012333;28;20468;-76
2023/05/26 05:06:22;;;;;;;6.67;5.33;;;17.90;59.80;;;17.50;49.22;98643.88;4996394;28;21658;-77
2023/05/26 05:08:50;;;;;;;5.07;4.13;;;17.90;59.30;;;17.45;49.65;98643.78;5014898;28;20564;-75
2023/05/26 05:11:18;;;;;;;4.80;4.23;;;17.80;59.50;;;17.23;49.88;98641.75;5009912;28;20473;-73
2023/05/26 05:13:45;;;;;;;6.57;5.00;;;18.10;58.70;;;17.66;49.37;98649.59;4994108;28;20552;-73
2023/05/26 05:16:13;;;;;;;9.30;5.87;;;18.30;58.60;;;18.43;47.19;98654.69;5009940;28;21146;-72
2023/05/26 05:18:41;;;;;;;4.80;4.30;;;18.90;57.60;;;18.11;48.20;98648.72;5004336;28;20509;-72
2023/05/26 05:21:08;;;;;;;8.23;4.87;;;18.90;57.30;;;17.81;48.75;98622.53;5013949;28;21024;-72
2023/05/26 05:23:37;;;;;;;6.37;4.33;;;18.70;57.30;;;17.34;49.66;98644.66;4990548;28;20454;-73
2023/05/26 05:26:06;;;;;;;5.10;4.60;;;18.50;56.90;;;17.65;49.90;98651.53;5020750;28;20620;-71
2023/05/26 05:28:33;;;;;;;6.50;4.60;;;18.40;57.60;;;18.38;48.37;98648.03;5006162;28;20548;-72
2023/05/26 05:31:00;;;;;;;6.60;5.13;;;19.00;57.50;;;18.05;48.31;98649.75;4996792;28;20802;-73
2023/05/26 05:33:28;;;;;;;7.00;4.20;;;19.60;56.10;;;17.43;49.58;98640.47;5021692;28;20457;-72
2023/05/26 05:35:56;;;;;;;6.83;5.07;;;18.70;56.20;;;17.22;50.77;98656.47;5002756;28;20453;-72
2023/05/26 05:38:23;;;;;;;7.20;4.10;;;18.60;56.70;;;17.73;49.43;98655.75;4999134;28;20935;-72
2023/05/26 05:40:50;;;;;;;6.77;4.37;;;18.60;56.70;;;17.68;49.26;98650.22;4998375;28;20485;-71
2023/05/26 05:43:19;;;;;;;8.53;4.77;;;18.70;56.60;;;18.02;48.65;98652.97;5000631;28;20555;-71
2023/05/26 05:45:46;;;;;;;5.50;4.93;;;19.00;56.20;;;18.95;46.55;98635.13;5014791;28;20526;-72
2023/05/26 05:48:13;;;;;;;6.57;4.50;;;19.20;56.10;;;18.95;45.73;98590.47;4995259;28;20457;-70
2023/05/26 05:50:40;;;;;;;6.83;4.70;;;20.10;55.10;;;18.64;47.47;98634.72;5013262;28;20555;-72
2023/05/26 05:53:08;;;;;;;10.50;5.97;;;19.50;55.40;;;19.03;47.27;98591.94;5015778;28;20892;-73
2023/05/26 05:55:35;;;;;;;6.07;5.17;;;19.70;56.00;;;18.65;47.21;98630.91;5018188;28;20470;-71
2023/05/26 05:58:02;;;;;;;7.60;5.33;;;19.50;55.10;;;18.96;46.43;98641.44;4993413;28;20454;-73
2023/05/26 06:00:31;;;;;;;5.77;4.43;;;19.90;54.80;;;19.45;45.12;98639.78;4991568;28;20477;-72
2023/05/26 06:02:58;;;;;;;6.83;5.00;;;20.20;53.90;;;19.37;46.25;98647.38;5010793;28;20504;-75
2023/05/26 06:05:26;;;;;;;5.37;3.97;;;20.30;54.30;;;19.04;46.48;98635.50;5012322;28;20470;-70
2023/05/26 06:07:53;;;;;;;6.27;4.47;;;20.10;54.20;;;19.49;45.64;98633.53;5001700;28;20799;-71
2023/05/26 06:10:20;;;;;;;5.60;4.33;;;20.70;54.00;;;19.42;44.68;98615.66;4994503;28;21277;-75
2023/05/26 06:12:48;;;;;;;6.40;4.70;;;20.70;53.50;;;20.61;42.61;98644.81;4999964;28;20466;-72
2023/05/26 06:15:15;;;;;;;6.23;4.80;;;21.50;52.60;;;20.39;43.36;98640.28;5015217;28;20459;-73
2023/05/26 06:17:43;;;;;;;5.40;4.63;;;21.60;52.20;;;20.39;43.08;98662.22;5012596;28;20500;-71
2023/05/26 06:20:14;;;;;;;6.50;4.63;;;21.70;52.00;;;18.40;46.92;98606.78;5018198;28;20465;-71
2023/05/26 06:22:42;;;;;;;7.17;5.03;;;20.20;52.70;;;17.03;50.22;98660.44;4997257;28;22317;-74
2023/05/26 06:25:10;;;;;;;6.40;4.90;;;18.50;53.50;;;16.26;53.21;98663.97;5024658;28;20466;-71
2023/05/26 06:27:37;;;;;;;5.13;4.63;;;17.20;56.00;;;16.19;54.27;98668.72;5010692;28;20458;-70
2023/05/26 06:30:05;;;;;;;4.90;4.20;;;16.70;57.80;;;16.41;54.13;98663.50;5005537;28;20454;-72
2023/05/26 06:32:33;;;;;;;9.47;5.00;;;16.60;59.20;;;16.21;54.07;98665.75;5020202;28;20458;-72
2023/05/26 06:35:02;;;;;;;5.43;4.70;;;16.50;59.30;;;15.94;55.22;98664.31;5020565;28;20461;-72
2023/05/26 06:37:29;;;;;;;7.67;4.30;;;16.30;60.20;;;16.11;54.67;98672.63;4997846;28;20492;-73
2023/05/26 06:39:56;;;;;;;5.13;4.40;;;16.30;60.80;;;15.81;54.42;98616.28;4992714;28;20458;-70
2023/05/26 06:42:24;;;;;;;5.30;4.50;;;16.30;60.80;;;15.96;54.86;98653.16;4997266;28;20473;-74
2023/05/26 06:44:52;;;;;;;4.60;4.17;;;16.30;61.30;;;16.09;54.50;98663.84;5017277;28;20498;-71
2023/05/26 06:47:23;;;;;;;9.77;5.17;;;16.30;61.30;;;16.34;54.98;98662.78;4998339;28;20736;-71
2023/05/26 06:49:51;;;;;;;5.13;3.97;;;16.40;62.30;;;16.46;54.08;98673.69;4999817;28;20480;-72
2023/05/26 06:52:19;;;;;;;8.00;5.03;;;16.50;61.30;;;16.27;53.96;98657.47;4996866;28;20452;-77
2023/05/26 06:54:46;;;;;;;5.07;4.00;;;16.50;61.10;;;16.50;54.00;98668.59;5003786;28;21035;-69
2023/05/26 06:57:14;;;;;;;7.10;5.03;;;16.60;61.50;;;16.34;53.32;98665.53;5015330;28;20465;-70
2023/05/26 06:59:42;;;;;;;6.53;4.10;;;16.70;60.40;;;16.42;53.44;98645.25;5001869;28;20469;-71
2023/05/26 07:02:10;;;;;;;6.43;4.33;;;16.70;60.70;;;16.61;52.04;98656.84;5024331;28;20491;-71
2023/05/26 07:04:37;;;;;;;4.33;3.70;;;16.90;59.40;;;16.76;52.04;98660.97;5001948;28;20477;-69
2023/05/26 07:07:04;;;;;;;6.10;3.80;;;16.90;59.70;;;16.57;51.99;98663.84;5014734;28;20547;-70
2023/05/26 07:09:33;;;;;;;9.63;4.93;;;16.90;59.00;;;16.82;52.15;98655.38;4999846;28;21249;-71
2023/05/26 07:12:00;;;;;;;4.57;3.60;;;17.00;59.70;;;16.93;51.73;98642.78;4988651;28;20461;-70
2023/05/26 07:14:28;;;;;;;4.83;3.37;;;17.10;59.60;;;17.19;51.20;98653.41;5013273;28;20461;-68
2023/05/26 07:16:55;;;;;;;5.23;3.53;;;17.30;59.90;;;17.03;50.98;98622.25;4996493;28;20465;-68
2023/05/26 07:19:22;;;;;;;5.70;4.70;;;17.40;59.00;;;17.34;50.93;98658.31;5018857;28;21014;-72
2023/05/26 07:21:49;;;;;;;5.30;4.33;;;17.50;59.00;;;17.26;50.70;98649.47;4997047;28;20477;-68
2023/05/26 07:24:16;;;;;;;6.80;4.03;;;17.50;58.50;;;17.03;50.33;98578.56;5012414;28;20454;-69
2023/05/26 07:26:44;;;;;;;5.03;3.77;;;17.60;58.30;;;17.50;50.16;98653.97;4999839;28;20980;-72
2023/05/26 07:29:12;;;;;;;7.17;4.57;;;17.70;58.30;;;17.25;50.65;98650.53;5020762;28;20460;-70
2023/05/26 07:31:39;;;;;;;4.43;4.00;;;17.60;58.10;;;17.70;50.56;98653.53;5013139;28;20500;-71
2023/05/26 07:34:06;;;;;;;4.40;3.80;;;17.70;58.80;;;17.47;50.76;98611.59;5001470;28;20454;-71
2023/05/26 07:36:35;;;;;;;7.30;4.33;;;17.90;58.90;;;17.66;49.84;98652.34;5012766;28;20465;-71
2023/05/26 07:39:06;;;;;;;6.30;4.47;;;17.90;58.00;;;17.88;49.66;98657.09;5019067;28;20454;-70
2023/05/26 07:41:35;;;;;;;4.63;3.20;;;17.90;58.00;;;18.19;49.10;98654.88;5022549;28;20553;-69
2023/05/26 07:44:04;;;;;;;4.97;4.37;;;18.20;58.10;;;18.20;49.03;98631.91;5017858;28;20468;-70
2023/05/26 07:46:31;;;;;;;5.70;4.53;;;18.30;58.00;;;18.67;48.68;98655.28;5012034;28;20485;-70
2023/05/26 07:48:58;;;;;;;9.90;4.83;;;18.60;58.20;;;18.50;48.86;98660.81;4997078;28;20513;-71
2023/05/26 07:51:26;;;;;;;5.87;3.97;;;18.60;57.90;;;18.67;48.07;98660.78;5018617;28;20477;-71
2023/05/26 07:53:53;;;;;;;5.43;3.90;;;18.70;57.20;;;18.51;48.06;98662.44;5015235;28;20478;-69
2023/05/26 07:56:20;;;;;;;4.17;3.53;;;18.70;57.00;;;18.23;48.96;98666.97;4998234;28;20463;-69
2023/05/26 07:58:48;;;;;;;5.87;4.07;;;18.50;57.30;;;18.55;49.29;98669.06;5015277;28;20473;-69
2023/05/26 08:01:16;;;;;;;5.03;3.40;;;18.50;58.10;;;18.53;48.22;98665.75;4995433;28;20967;-71
2023/05/26 08:03:44;;;;;;;6.83;4.57;;;18.60;57.40;;;18.48;48.13;98668.44;5007408;28;20529;-70
2023/05/26 08:06:11;;;;;;;6.67;4.10;;;18.50;57.10;;;18.61;47.90;98668.06;5001036;28;20467;-69
2023/05/26 08:08:39;;;;;;;6.17;3.90;;;18.60;57.00;;;18.74;47.71;98666.06;5000442;28;20869;-70
2023/05/26 08:11:06;;;;;;;6.50;4.13;;;18.70;56.80;;;18.81;47.46;98663.94;4997382;28;20479;-71
2023/05/26 08:13:33;;;;;;;4.60;4.10;;;18.80;56.80;;;18.59;47.57;98666.66;4999142;28;20461;-70
2023/05/26 08:16:01;;;;;;;6.03;3.90;;;18.80;56.20;;;18.18;47.69;98661.44;5001886;28;20865;-70
2023/05/26 08:18:30;;;;;;;5.33;4.00;;;18.60;55.70;;;18.54;47.21;98668.25;4989326;28;20620;-69
2023/05/26 08:20:57;;;;;;;7.63;4.00;;;18.50;55.80;;;18.59;47.55;98664.78;5016594;28;20585;-71
2023/05/26 08:23:24;;;;;;;5.20;4.17;;;18.60;56.10;;;18.68;47.20;98652.28;5020575;28;20530;-71
2023/05/26 08:25:52;;;;;;;5.30;3.90;;;18.70;56.00;;;18.98;47.59;98661.97;5007554;28;21017;-68
2023/05/26 08:28:19;;;;;;;4.60;4.03;;;18.80;56.50;;;19.13;47.29;98668.75;5014783;28;20461;-71
2023/05/26 08:30:46;;;;;;;5.10;4.20;;;19.00;56.50;;;19.07;46.78;98639.66;5002196;28;20460;-71
2023/05/26 08:33:14;;;;;;;6.60;4.07;;;19.20;56.30;;;19.19;46.46;98643.09;4998687;28;20472;-75
2023/05/26 08:35:42;;;;;;;5.80;4.40;;;19.20;55.80;;;19.08;46.90;98655.81;5001549;28;20459;-71
2023/05/26 08:38:09;;;;;;;6.53;3.90;;;19.30;55.60;;;19.18;46.74;98655.09;4997391;28;20512;-71
2023/05/26 08:40:37;;;;;;;5.00;4.50;;;19.30;55.80;;;19.30;46.43;98657.72;4998968;28;20462;-70
2023/05/26 08:43:08;;;;;;;6.07;3.90;;;19.30;55.70;;;19.29;47.09;98658.81;5017529;28;20466;-71
2023/05/26 08:45:35;;;;;;;5.77;4.20;;;19.30;56.10;;;19.21;47.60;98660.09;5015016;28;20469;-72
2023/05/26 08:48:03;;;;;;;4.93;4.37;;;19.30;56.20;;;19.43;46.83;98650.19;5001158;28;20478;-71
2023/05/26 08:50:31;;;;;;;6.67;4.60;;;19.40;56.50;;;19.40;46.40;98657.00;5011167;28;20470;-71
2023/05/26 08:53:01;;;;;;;4.57;4.10;;;19.40;55.80;;;19.52;46.22;98663.16;4996355;28;20502;-70
2023/05/26 08:55:29;;;;;;;5.47;4.10;;;19.50;55.60;;;19.76;46.37;98665.56;4994657;28;20460;-71
2023/05/26 08:57:58;;;;;;;8.87;5.20;;;19.70;56.10;;;19.84;45.84;98660.72;5016342;28;20457;-72
2023/05/26 09:00:29;;;;;;;5.33;4.20;;;19.80;55.50;;;19.14;47.01;98656.72;4994678;28;20550;-69
2023/05/26 09:02:57;;;;;;;4.53;4.13;;;19.50;55.40;;;19.51;45.81;98653.28;5013191;28;20559;-71
2023/05/26 09:05:24;;;;;;;6.43;5.00;;;19.50;55.30;;;19.60;45.63;98628.13;5016720;28;20955;-70
2023/05/26 09:07:51;;;;;;;6.07;4.00;;;19.60;55.20;;;19.62;45.67;98640.50;4998480;28;20488;-71
2023/05/26 09:10:24;;;;;;;4.40;4.00;;;19.70;55.10;;;19.56;45.77;98657.97;5015583;28;20534;-70
2023/05/26 09:13:04;;;;;;;6.10;4.63;;;19.70;54.90;;;19.72;45.38;98648.00;5018750;28;20459;-71
2023/05/26 09:15:31;;;;;;;5.30;3.63;;;19.70;55.00;;;19.84;45.47;98641.50;5007208;28;21052;-71
2023/05/26 09:18:07;;;;;;;5.07;3.87;;;19.80;55.00;;;20.08;45.44;98650.25;5005887;28;20880;-71
2023/05/26 09:20:35;;;;;;;5.27;4.47;;;20.00;55.30;;;20.07;44.85;98660.38;5015777;28;20489;-71
2023/05/26 09:23:02;;;;;;;6.47;3.70;;;20.10;54.50;;;20.05;45.09;98668.03;4989876;28;20459;-71
2023/05/26 09:25:35;;;;;;;3.93;3.47;;;20.10;54.50;;;20.31;44.90;98665.50;4998368;28;20972;-71
2023/05/26 09:28:04;;;;;;;4.60;4.20;;;20.30;55.00;;;20.08;44.03;98656.53;4996037;28;20529;-71
2023/05/26 09:30:37;;;;;;;6.50;4.27;;;20.20;53.80;;;20.45;44.15;98659.53;5022307;28;20524;-69
2023/05/26 09:33:06;;;;;;;6.47;4.20;;;20.40;54.40;;;20.31;44.41;98662.75;5014776;28;20486;-70
2023/05/26 09:35:38;;;;;;;4.93;4.47;;;20.50;54.10;;;20.27;44.29;98666.28;4995098;28;20497;-71
2023/05/26 09:38:06;;;;;;;5.83;4.13;;;20.40;54.30;;;20.22;44.05;98661.56;5010578;28;21122;-71
2023/05/26 09:40:37;;;;;;;5.00;4.50;;;20.40;53.70;;;20.43;43.39;98648.81;5015569;28;20474;-70
2023/05/26 09:43:04;;;;;;;7.10;4.30;;;20.50;53.40;;;20.77;43.62;98653.13;5016647;28;20461;-71
2023/05/26 09:45:35;;;;;;;5.20;4.67;;;20.70;53.90;;;20.94;43.05;98666.69;5019770;28;20459;-72
2023/05/26 09:48:05;;;;;;;5.47;4.00;;;20.90;53.60;;;20.92;42.79;98658.72;4989882;28;20566;-71
2023/05/26 09:50:33;;;;;;;4.73;4.20;;;20.90;53.40;;;20.64;43.52;98663.50;5014303;28;20938;-69
2023/05/26 09:53:02;;;;;;;4.80;4.30;;;20.80;53.50;;;20.54;43.69;98671.66;5012669;28;20458;-71
2023/05/26 09:55:30;;;;;;;5.17;4.50;;;20.70;53.20;;;20.58;43.80;98652.75;5007197;28;20516;-69
2023/05/26 09:58:07;;;;;;;6.90;4.37;;;20.70;53.60;;;20.43;43.54;98651.56;5005227;28;20490;-70
2023/05/26 10:00:37;;;;;;;5.07;4.57;;;20.70;53.30;;;20.69;43.43;98665.44;5015014;28;20461;-71
2023/05/26 10:03:04;;;;;;;4.70;4.17;;;20.70;53.20;;;20.93;42.89;98654.06;5000351;28;20468;-71
2023/05/26 10:05:33;;;;;;;6.30;4.20;;;20.80;53.10;;;21.06;42.66;98663.72;5025796;28;20458;-74
2023/05/26 10:08:01;;;;;;;4.83;4.07;;;21.10;53.10;;;20.98;43.89;98650.50;5018055;28;20493;-70
2023/05/26 10:10:30;;;;;;;5.30;4.20;;;21.10;53.60;;;21.05;43.86;98659.31;5020597;28;20470;-71
2023/05/26 10:13:01;;;;;;;6.13;4.53;;;21.10;53.70;;;21.16;42.57;98650.03;4996873;28;20486;-70
2023/05/26 10:15:29;;;;;;;6.77;4.20;;;21.20;53.00;;;21.44;42.41;98650.63;5019900;28;20552;-70
2023/05/26 10:17:58;;;;;;;5.63;4.40;;;21.40;53.10;;;21.58;42.17;98656.44;5018789;28;20477;-70
2023/05/26 10:20:25;;;;;;;6.20;4.30;;;21.50;53.00;;;21.46;42.39;98651.19;5005073;28;21000;-70
2023/05/26 10:23:01;;;;;;;5.17;4.07;;;21.50;52.80;;;21.34;42.49;98647.88;4998542;28;20466;-70
2023/05/26 10:25:34;;;;;;;4.10;3.57;;;21.40;52.60;;;21.15;42.12;98650.28;5007844;28;20490;-70